首页
METAR-TAF:

METAR-TAF

机场 :

布達佩斯李斯特·費倫茨國際機場

布达佩斯, 匈牙利

纬度: 47-26N, 经度: 019-16E, 海拔: 151米

当前天气观测

该预报发布于27分钟前的12:30 UTC
风速4节,风向东转东北,在之间变化
温度 9°C
湿度 93%
气压 1009 hPa
能见度10公里或以上
少量云层高于3500英尺
阴天层高于7000英尺
小雨

METAR: LHBP 121230Z 06004KT 010V100 9999 -RA FEW035 OVC070 09/08 Q1009 BECMG 10013G26KT

时间: 13:57 (12:57 UTC)

预报

该预报发布于1小时和42分钟前的11:15 UTC
预报有效从12日的 12点(UTC)到 13日的 12点(UTC)
风速8节,风向
能见度10公里或以上
1500米以下无云,无积雨云
成为
从 12日的 12点(UTC)到 12日的 14点(UTC)
风速13节,风向,有时为26节阵风
短暂存在
从 12日的 12点(UTC)到 12日的 18点(UTC)
能見度: 5000
多云层高于900英尺
阴天层高于4000英尺
雨, 阵雨
成为
从 12日的 19点(UTC)到 12日的 21点(UTC)
风速9节,风向
短暂存在
从 13日的 03点(UTC)到 13日的 12点(UTC)
能見度: 5000
多云层高于700英尺
阴天层高于3000英尺
雨, 阵雨

TAF: LHBP 121115Z 1212/1312 08008KT CAVOK BECMG 1212/1214 10013G26KT TEMPO 1212/1218 5000 RA SHRA BKN009 OVC040 BECMG 1219/1221 09009KT TEMPO 1303/1312 5000 RA SHRA BKN007 OVC030

超过4000个机场的气象观测和天气预报(METAR&TAF报告)。

可查询的气象台以黄色和红色小点在地图上表示。

将鼠标移到小点上方,可查看气象台名称。

然后点击查看天气观测和预报。

如需切换地图:点击带黑十字的绿色按钮放大地图;点击带横线的绿色按钮缩小地图;或者点击绿色箭头查看邻近地区的地图。


METAR-TAF: